sensor_id;sensor_type;location;lat;lon;timestamp;pressure;altitude;pressure_sealevel;temperature
20867;BMP280;10593;48.398;10.698;2022-10-17T00:01:22;96778.63;;;21.63
20867;BMP280;10593;48.398;10.698;2022-10-17T00:03:48;96780.44;;;21.61
20867;BMP280;10593;48.398;10.698;2022-10-17T00:06:14;96788.41;;;21.59
20867;BMP280;10593;48.398;10.698;2022-10-17T00:08:42;96787.59;;;21.57
20867;BMP280;10593;48.398;10.698;2022-10-17T00:11:16;96790.31;;;21.56
20867;BMP280;10593;48.398;10.698;2022-10-17T00:13:43;96792.25;;;21.52
20867;BMP280;10593;48.398;10.698;2022-10-17T00:16:10;96782.88;;;21.48
20867;BMP280;10593;48.398;10.698;2022-10-17T00:18:36;96794.25;;;21.47
20867;BMP280;10593;48.398;10.698;2022-10-17T00:21:02;96783.97;;;21.44
20867;BMP280;10593;48.398;10.698;2022-10-17T00:23:28;96793.56;;;21.44
20867;BMP280;10593;48.398;10.698;2022-10-17T00:26:01;96798.03;;;21.42
20867;BMP280;10593;48.398;10.698;2022-10-17T00:28:27;96791.28;;;21.38
20867;BMP280;10593;48.398;10.698;2022-10-17T00:30:58;96799.19;;;21.36
20867;BMP280;10593;48.398;10.698;2022-10-17T00:33:25;96800.19;;;21.34
20867;BMP280;10593;48.398;10.698;2022-10-17T00:36:03;96809.88;;;21.32
20867;BMP280;10593;48.398;10.698;2022-10-17T00:38:29;96802.19;;;21.29
20867;BMP280;10593;48.398;10.698;2022-10-17T00:40:55;96804.97;;;21.26
20867;BMP280;10593;48.398;10.698;2022-10-17T00:43:21;96797.97;;;21.27
20867;BMP280;10593;48.398;10.698;2022-10-17T00:45:47;96806.81;;;21.24
20867;BMP280;10593;48.398;10.698;2022-10-17T00:48:14;96797.34;;;21.22
20867;BMP280;10593;48.398;10.698;2022-10-17T00:50:43;96811.25;;;21.22
20867;BMP280;10593;48.398;10.698;2022-10-17T00:53:12;96806.19;;;21.19
20867;BMP280;10593;48.398;10.698;2022-10-17T00:55:49;96812.34;;;21.18
20867;BMP280;10593;48.398;10.698;2022-10-17T00:58:16;96819.41;;;21.16
20867;BMP280;10593;48.398;10.698;2022-10-17T01:00:45;96818.66;;;21.14
20867;BMP280;10593;48.398;10.698;2022-10-17T01:03:10;96824.81;;;21.13
20867;BMP280;10593;48.398;10.698;2022-10-17T01:05:37;96818.81;;;21.11
20867;BMP280;10593;48.398;10.698;2022-10-17T01:08:04;96824.09;;;21.10
20867;BMP280;10593;48.398;10.698;2022-10-17T01:10:47;96823.34;;;21.08
20867;BMP280;10593;48.398;10.698;2022-10-17T01:13:29;96819.09;;;21.05
20867;BMP280;10593;48.398;10.698;2022-10-17T01:16:17;96824.50;;;21.02
20867;BMP280;10593;48.398;10.698;2022-10-17T01:21:54;96812.56;;;20.97
20867;BMP280;10593;48.398;10.698;2022-10-17T01:24:47;96812.63;;;20.95
20867;BMP280;10593;48.398;10.698;2022-10-17T01:32:53;96810.41;;;20.88
20867;BMP280;10593;48.398;10.698;2022-10-17T01:35:24;96808.78;;;20.85
20867;BMP280;10593;48.398;10.698;2022-10-17T01:41:13;96801.16;;;20.81
20867;BMP280;10593;48.398;10.698;2022-10-17T01:46:33;96799.50;;;20.78
20867;BMP280;10593;48.398;10.698;2022-10-17T01:49:01;96799.59;;;20.77
20867;BMP280;10593;48.398;10.698;2022-10-17T01:51:41;96795.28;;;20.76
20867;BMP280;10593;48.398;10.698;2022-10-17T01:54:21;96800.59;;;20.74
20867;BMP280;10593;48.398;10.698;2022-10-17T01:56:55;96792.00;;;20.72
20867;BMP280;10593;48.398;10.698;2022-10-17T01:59:34;96789.44;;;20.71
20867;BMP280;10593;48.398;10.698;2022-10-17T02:02:01;96782.59;;;20.68
20867;BMP280;10593;48.398;10.698;2022-10-17T02:04:28;96786.13;;;20.67
20867;BMP280;10593;48.398;10.698;2022-10-17T02:06:53;96791.44;;;20.66
20867;BMP280;10593;48.398;10.698;2022-10-17T02:09:25;96784.53;;;20.65
20867;BMP280;10593;48.398;10.698;2022-10-17T02:18:37;96780.56;;;20.56
20867;BMP280;10593;48.398;10.698;2022-10-17T02:21:35;96773.66;;;20.55
20867;BMP280;10593;48.398;10.698;2022-10-17T02:24:26;96768.59;;;20.52
20867;BMP280;10593;48.398;10.698;2022-10-17T02:27:19;96773.03;;;20.50
20867;BMP280;10593;48.398;10.698;2022-10-17T02:30:07;96785.34;;;20.48
20867;BMP280;10593;48.398;10.698;2022-10-17T02:33:08;96787.19;;;20.46
20867;BMP280;10593;48.398;10.698;2022-10-17T02:35:40;96788.16;;;20.44
20867;BMP280;10593;48.398;10.698;2022-10-17T02:38:08;96789.13;;;20.41
20867;BMP280;10593;48.398;10.698;2022-10-17T02:40:36;96793.53;;;20.41
20867;BMP280;10593;48.398;10.698;2022-10-17T02:43:03;96792.81;;;20.37
20867;BMP280;10593;48.398;10.698;2022-10-17T02:45:31;96792.81;;;20.37
20867;BMP280;10593;48.398;10.698;2022-10-17T02:48:27;96798.25;;;20.33
20867;BMP280;10593;48.398;10.698;2022-10-17T02:51:41;96801.06;;;20.28
20867;BMP280;10593;48.398;10.698;2022-10-17T02:54:30;96809.06;;;20.25
20867;BMP280;10593;48.398;10.698;2022-10-17T02:57:06;96803.13;;;20.22
20867;BMP280;10593;48.398;10.698;2022-10-17T02:59:35;96808.44;;;20.20
20867;BMP280;10593;48.398;10.698;2022-10-17T03:02:04;96809.34;;;20.19
20867;BMP280;10593;48.398;10.698;2022-10-17T03:04:30;96803.38;;;20.17
20867;BMP280;10593;48.398;10.698;2022-10-17T03:06:55;96808.66;;;20.16
20867;BMP280;10593;48.398;10.698;2022-10-17T03:09:21;96818.31;;;20.14
20867;BMP280;10593;48.398;10.698;2022-10-17T03:11:47;96807.09;;;20.12
20867;BMP280;10593;48.398;10.698;2022-10-17T03:14:12;96811.47;;;20.11
20867;BMP280;10593;48.398;10.698;2022-10-17T03:16:38;96809.78;;;20.10
20867;BMP280;10593;48.398;10.698;2022-10-17T03:19:04;96815.03;;;20.09
20867;BMP280;10593;48.398;10.698;2022-10-17T03:21:29;96809.91;;;20.07
20867;BMP280;10593;48.398;10.698;2022-10-17T03:23:55;96812.53;;;20.07
20867;BMP280;10593;48.398;10.698;2022-10-17T03:26:21;96823.88;;;20.06
20867;BMP280;10593;48.398;10.698;2022-10-17T03:28:47;96823.13;;;20.04
20867;BMP280;10593;48.398;10.698;2022-10-17T03:31:15;96824.91;;;20.02
20867;BMP280;10593;48.398;10.698;2022-10-17T03:33:41;96829.28;;;20.02
20867;BMP280;10593;48.398;10.698;2022-10-17T03:36:11;96834.56;;;20.00
20867;BMP280;10593;48.398;10.698;2022-10-17T03:38:38;96834.69;;;19.97
20867;BMP280;10593;48.398;10.698;2022-10-17T03:41:04;96836.53;;;19.95
20867;BMP280;10593;48.398;10.698;2022-10-17T03:43:30;96836.59;;;19.94
20867;BMP280;10593;48.398;10.698;2022-10-17T03:45:57;96836.69;;;19.92
20867;BMP280;10593;48.398;10.698;2022-10-17T03:48:24;96839.34;;;19.91
20867;BMP280;10593;48.398;10.698;2022-10-17T03:50:50;96833.41;;;19.87
20867;BMP280;10593;48.398;10.698;2022-10-17T03:53:16;96831.72;;;19.86
20867;BMP280;10593;48.398;10.698;2022-10-17T03:55:41;96833.53;;;19.84
20867;BMP280;10593;48.398;10.698;2022-10-17T03:58:07;96831.91;;;19.82
20867;BMP280;10593;48.398;10.698;2022-10-17T04:00:35;96838.13;;;19.79
20867;BMP280;10593;48.398;10.698;2022-10-17T04:03:01;96842.50;;;19.79
20867;BMP280;10593;48.398;10.698;2022-10-17T04:05:27;96839.16;;;19.75
20867;BMP280;10593;48.398;10.698;2022-10-17T04:07:52;96839.25;;;19.74
20867;BMP280;10593;48.398;10.698;2022-10-17T04:10:18;96843.69;;;19.72
20867;BMP280;10593;48.398;10.698;2022-10-17T04:12:44;96842.81;;;19.71
20867;BMP280;10593;48.398;10.698;2022-10-17T04:15:10;96842.06;;;19.69
20867;BMP280;10593;48.398;10.698;2022-10-17T04:17:36;96845.56;;;19.68
20867;BMP280;10593;48.398;10.698;2022-10-17T04:20:02;96854.38;;;19.66
20867;BMP280;10593;48.398;10.698;2022-10-17T04:22:27;96852.69;;;19.65
20867;BMP280;10593;48.398;10.698;2022-10-17T04:24:53;96857.06;;;19.64
20867;BMP280;10593;48.398;10.698;2022-10-17T04:27:19;96860.59;;;19.63
20867;BMP280;10593;48.398;10.698;2022-10-17T04:29:44;96866.69;;;19.62
20867;BMP280;10593;48.398;10.698;2022-10-17T04:32:10;96865.84;;;19.62
20867;BMP280;10593;48.398;10.698;2022-10-17T04:34:35;96865.91;;;19.60
20867;BMP280;10593;48.398;10.698;2022-10-17T04:37:01;96863.38;;;19.59
20867;BMP280;10593;48.398;10.698;2022-10-17T04:39:28;96867.84;;;19.57
20867;BMP280;10593;48.398;10.698;2022-10-17T04:41:53;96862.72;;;19.54
20867;BMP280;10593;48.398;10.698;2022-10-17T04:44:21;96870.63;;;19.52
20867;BMP280;10593;48.398;10.698;2022-10-17T04:46:47;96870.75;;;19.49
20867;BMP280;10593;48.398;10.698;2022-10-17T04:49:13;96869.03;;;19.48
20867;BMP280;10593;48.398;10.698;2022-10-17T04:51:39;96870.94;;;19.45
20867;BMP280;10593;48.398;10.698;2022-10-17T04:54:05;96872.84;;;19.41
20867;BMP280;10593;48.398;10.698;2022-10-17T04:56:30;96875.50;;;19.40
20867;BMP280;10593;48.398;10.698;2022-10-17T04:58:58;96866.97;;;19.36
20867;BMP280;10593;48.398;10.698;2022-10-17T05:01:25;96870.56;;;19.34
20867;BMP280;10593;48.398;10.698;2022-10-17T05:03:51;96875.03;;;19.30
20867;BMP280;10593;48.398;10.698;2022-10-17T05:06:21;96872.50;;;19.29
20867;BMP280;10593;48.398;10.698;2022-10-17T05:08:47;96870.00;;;19.26
20867;BMP280;10593;48.398;10.698;2022-10-17T05:11:22;96876.13;;;19.25
20867;BMP280;10593;48.398;10.698;2022-10-17T05:14:00;96874.53;;;19.22
20867;BMP280;10593;48.398;10.698;2022-10-17T05:16:27;96874.63;;;19.19
20867;BMP280;10593;48.398;10.698;2022-10-17T05:18:56;96871.25;;;19.17
20867;BMP280;10593;48.398;10.698;2022-10-17T05:21:24;96876.50;;;19.16
20867;BMP280;10593;48.398;10.698;2022-10-17T05:23:51;96879.16;;;19.14
20867;BMP280;10593;48.398;10.698;2022-10-17T05:26:17;96881.75;;;19.14
20867;BMP280;10593;48.398;10.698;2022-10-17T05:28:43;96883.59;;;19.12
20867;BMP280;10593;48.398;10.698;2022-10-17T05:31:10;96874.09;;;19.11
20867;BMP280;10593;48.398;10.698;2022-10-17T05:33:37;96881.03;;;19.11
20867;BMP280;10593;48.398;10.698;2022-10-17T05:36:04;96873.31;;;19.09
20867;BMP280;10593;48.398;10.698;2022-10-17T05:38:30;96883.72;;;19.09
20867;BMP280;10593;48.398;10.698;2022-10-17T05:41:02;96886.34;;;19.09
20867;BMP280;10593;48.398;10.698;2022-10-17T05:43:29;96886.38;;;19.08
20867;BMP280;10593;48.398;10.698;2022-10-17T05:45:55;96891.59;;;19.08
20867;BMP280;10593;48.398;10.698;2022-10-17T05:48:22;96891.63;;;19.06
20867;BMP280;10593;48.398;10.698;2022-10-17T05:50:48;96891.72;;;19.05
20867;BMP280;10593;48.398;10.698;2022-10-17T05:53:16;96897.75;;;19.05
20867;BMP280;10593;48.398;10.698;2022-10-17T05:55:41;96899.53;;;19.05
20867;BMP280;10593;48.398;10.698;2022-10-17T05:58:07;96904.75;;;19.05
20867;BMP280;10593;48.398;10.698;2022-10-17T06:00:33;96909.97;;;19.05
20867;BMP280;10593;48.398;10.698;2022-10-17T06:02:58;96912.56;;;19.05
20867;BMP280;10593;48.398;10.698;2022-10-17T06:05:24;96917.78;;;19.05
20867;BMP280;10593;48.398;10.698;2022-10-17T06:07:50;96911.69;;;19.04
20867;BMP280;10593;48.398;10.698;2022-10-17T06:10:18;96919.53;;;19.04
20867;BMP280;10593;48.398;10.698;2022-10-17T06:12:44;96922.13;;;19.04
20867;BMP280;10593;48.398;10.698;2022-10-17T06:15:11;96920.31;;;19.06
20867;BMP280;10593;48.398;10.698;2022-10-17T06:17:37;96927.09;;;19.10
20867;BMP280;10593;48.398;10.698;2022-10-17T06:20:04;96926.84;;;19.16
20867;BMP280;10593;48.398;10.698;2022-10-17T06:22:29;96933.56;;;19.23
20867;BMP280;10593;48.398;10.698;2022-10-17T06:24:55;96927.94;;;19.32
20867;BMP280;10593;48.398;10.698;2022-10-17T06:27:21;96928.22;;;19.46
20867;BMP280;10593;48.398;10.698;2022-10-17T06:29:47;96931.97;;;19.61
20867;BMP280;10593;48.398;10.698;2022-10-17T06:32:13;96934.78;;;19.76
20867;BMP280;10593;48.398;10.698;2022-10-17T06:34:39;96939.13;;;19.96
20867;BMP280;10593;48.398;10.698;2022-10-17T06:37:05;96943.38;;;20.18
20867;BMP280;10593;48.398;10.698;2022-10-17T06:39:30;96956.13;;;20.44
20867;BMP280;10593;48.398;10.698;2022-10-17T06:42:03;96959.81;;;20.77
20867;BMP280;10593;48.398;10.698;2022-10-17T06:44:29;96965.19;;;21.11
20867;BMP280;10593;48.398;10.698;2022-10-17T06:46:59;96960.56;;;21.51
20867;BMP280;10593;48.398;10.698;2022-10-17T06:49:26;96963.00;;;21.90
20867;BMP280;10593;48.398;10.698;2022-10-17T06:51:52;96959.25;;;22.28
20867;BMP280;10593;48.398;10.698;2022-10-17T06:54:18;96955.66;;;22.63
20867;BMP280;10593;48.398;10.698;2022-10-17T06:56:44;96951.81;;;23.01
20867;BMP280;10593;48.398;10.698;2022-10-17T06:59:10;96959.63;;;23.33
20867;BMP280;10593;48.398;10.698;2022-10-17T07:01:36;96959.56;;;23.64
20867;BMP280;10593;48.398;10.698;2022-10-17T07:04:02;96959.66;;;23.92
20867;BMP280;10593;48.398;10.698;2022-10-17T07:06:27;96956.22;;;24.19
20867;BMP280;10593;48.398;10.698;2022-10-17T07:08:53;96951.66;;;24.37
20867;BMP280;10593;48.398;10.698;2022-10-17T07:11:21;96957.59;;;24.40
20867;BMP280;10593;48.398;10.698;2022-10-17T07:13:48;96964.91;;;24.35
20867;BMP280;10593;48.398;10.698;2022-10-17T07:16:15;96964.72;;;24.24
20867;BMP280;10593;48.398;10.698;2022-10-17T07:18:41;96962.06;;;24.10
20867;BMP280;10593;48.398;10.698;2022-10-17T07:21:11;96963.13;;;23.92
20867;BMP280;10593;48.398;10.698;2022-10-17T07:23:37;96968.59;;;23.74
20867;BMP280;10593;48.398;10.698;2022-10-17T07:26:10;96975.00;;;23.55
20867;BMP280;10593;48.398;10.698;2022-10-17T07:28:39;96984.91;;;23.34
20867;BMP280;10593;48.398;10.698;2022-10-17T07:31:09;96987.72;;;23.16
20867;BMP280;10593;48.398;10.698;2022-10-17T07:33:34;96991.41;;;22.96
20867;BMP280;10593;48.398;10.698;2022-10-17T07:36:02;96993.22;;;22.79
20867;BMP280;10593;48.398;10.698;2022-10-17T07:38:28;96989.81;;;22.61
20867;BMP280;10593;48.398;10.698;2022-10-17T07:40:56;97004.56;;;22.47
20867;BMP280;10593;48.398;10.698;2022-10-17T07:43:23;96999.94;;;22.35
20867;BMP280;10593;48.398;10.698;2022-10-17T07:45:50;97005.88;;;22.21
20867;BMP280;10593;48.398;10.698;2022-10-17T07:48:16;97008.19;;;22.10
20867;BMP280;10593;48.398;10.698;2022-10-17T07:50:42;97007.81;;;22.01
20867;BMP280;10593;48.398;10.698;2022-10-17T07:53:08;97011.75;;;21.92
20867;BMP280;10593;48.398;10.698;2022-10-17T07:55:36;97010.44;;;21.84
20867;BMP280;10593;48.398;10.698;2022-10-17T07:58:02;97009.03;;;21.77
20867;BMP280;10593;48.398;10.698;2022-10-17T08:00:28;97007.66;;;21.70
20867;BMP280;10593;48.398;10.698;2022-10-17T08:02:53;97014.03;;;21.64
20867;BMP280;10593;48.398;10.698;2022-10-17T08:05:19;97006.47;;;21.58
20867;BMP280;10593;48.398;10.698;2022-10-17T08:07:45;97004.06;;;21.54
20867;BMP280;10593;48.398;10.698;2022-10-17T08:10:12;97007.72;;;21.50
20867;BMP280;10593;48.398;10.698;2022-10-17T08:12:38;97007.09;;;21.45
20867;BMP280;10593;48.398;10.698;2022-10-17T08:15:06;97010.81;;;21.41
20867;BMP280;10593;48.398;10.698;2022-10-17T08:17:35;97004.91;;;21.36
20867;BMP280;10593;48.398;10.698;2022-10-17T08:20:01;97016.31;;;21.35
20867;BMP280;10593;48.398;10.698;2022-10-17T08:22:26;97018.16;;;21.33
20867;BMP280;10593;48.398;10.698;2022-10-17T08:24:52;97013.91;;;21.30
20867;BMP280;10593;48.398;10.698;2022-10-17T08:27:18;97016.63;;;21.29
20867;BMP280;10593;48.398;10.698;2022-10-17T08:29:49;97014.97;;;21.27
20867;BMP280;10593;48.398;10.698;2022-10-17T08:32:22;97014.22;;;21.25
20867;BMP280;10593;48.398;10.698;2022-10-17T08:34:53;97017.81;;;21.22
20867;BMP280;10593;48.398;10.698;2022-10-17T08:37:20;97018.72;;;21.21
20867;BMP280;10593;48.398;10.698;2022-10-17T08:39:47;97022.25;;;21.20
20867;BMP280;10593;48.398;10.698;2022-10-17T08:45:58;97018.03;;;21.18
20867;BMP280;10593;48.398;10.698;2022-10-17T08:48:28;97016.25;;;21.18
20867;BMP280;10593;48.398;10.698;2022-10-17T08:51:06;97017.91;;;21.21
20867;BMP280;10593;48.398;10.698;2022-10-17T08:53:44;97019.66;;;21.20
20867;BMP280;10593;48.398;10.698;2022-10-17T08:56:24;97020.41;;;21.22
20867;BMP280;10593;48.398;10.698;2022-10-17T08:58:51;97017.81;;;21.22
20867;BMP280;10593;48.398;10.698;2022-10-17T09:06:41;97011.44;;;21.27
20867;BMP280;10593;48.398;10.698;2022-10-17T09:11:55;97021.53;;;21.35
20867;BMP280;10593;48.398;10.698;2022-10-17T09:20:26;97015.00;;;21.43
20867;BMP280;10593;48.398;10.698;2022-10-17T09:23:19;97021.88;;;21.46
20867;BMP280;10593;48.398;10.698;2022-10-17T09:25:55;97019.91;;;21.51
20867;BMP280;10593;48.398;10.698;2022-10-17T09:28:37;97020.59;;;21.54
20867;BMP280;10593;48.398;10.698;2022-10-17T09:31:17;97015.19;;;21.57
20867;BMP280;10593;48.398;10.698;2022-10-17T09:33:46;97020.22;;;21.62
20867;BMP280;10593;48.398;10.698;2022-10-17T09:36:18;97014.88;;;21.65
20867;BMP280;10593;48.398;10.698;2022-10-17T09:38:58;97012.03;;;21.69
20867;BMP280;10593;48.398;10.698;2022-10-17T09:41:39;97009.28;;;21.72
20867;BMP280;10593;48.398;10.698;2022-10-17T09:44:33;97016.97;;;21.75
20867;BMP280;10593;48.398;10.698;2022-10-17T09:49:45;97005.19;;;21.84
20867;BMP280;10593;48.398;10.698;2022-10-17T09:52:29;97000.66;;;21.87
20867;BMP280;10593;48.398;10.698;2022-10-17T09:55:10;97009.19;;;21.91
20867;BMP280;10593;48.398;10.698;2022-10-17T09:58:02;97009.88;;;21.94
20867;BMP280;10593;48.398;10.698;2022-10-17T10:00:36;97002.72;;;21.98
20867;BMP280;10593;48.398;10.698;2022-10-17T10:03:24;97011.28;;;22.01
20867;BMP280;10593;48.398;10.698;2022-10-17T10:06:11;97019.84;;;22.05
20867;BMP280;10593;48.398;10.698;2022-10-17T10:08:50;97019.69;;;22.08
20867;BMP280;10593;48.398;10.698;2022-10-17T10:11:18;97017.66;;;22.13
20867;BMP280;10593;48.398;10.698;2022-10-17T10:13:47;97022.75;;;22.16
20867;BMP280;10593;48.398;10.698;2022-10-17T10:16:17;97012.91;;;22.21
20867;BMP280;10593;48.398;10.698;2022-10-17T10:18:44;97005.72;;;22.24
20867;BMP280;10593;48.398;10.698;2022-10-17T10:21:22;97006.41;;;22.28
20867;BMP280;10593;48.398;10.698;2022-10-17T10:26:48;97009.38;;;22.37
20867;BMP280;10593;48.398;10.698;2022-10-17T10:29:34;97013.59;;;22.41
20867;BMP280;10593;48.398;10.698;2022-10-17T10:32:26;97004.66;;;22.45
20867;BMP280;10593;48.398;10.698;2022-10-17T10:34:57;97009.72;;;22.48
20867;BMP280;10593;48.398;10.698;2022-10-17T10:37:41;97004.25;;;22.53
20867;BMP280;10593;48.398;10.698;2022-10-17T10:40:22;97011.88;;;22.57
20867;BMP280;10593;48.398;10.698;2022-10-17T10:42:53;97009.94;;;22.61
20867;BMP280;10593;48.398;10.698;2022-10-17T10:45:23;97014.09;;;22.65
20867;BMP280;10593;48.398;10.698;2022-10-17T10:50:39;97011.06;;;22.72
20867;BMP280;10593;48.398;10.698;2022-10-17T10:59:41;97013.34;;;22.78
20867;BMP280;10593;48.398;10.698;2022-10-17T11:02:32;97007.84;;;22.83
20867;BMP280;10593;48.398;10.698;2022-10-17T11:05:14;97022.50;;;22.87
20867;BMP280;10593;48.398;10.698;2022-10-17T11:08:21;97013.63;;;22.89
20867;BMP280;10593;48.398;10.698;2022-10-17T11:11:04;97004.75;;;22.92
20867;BMP280;10593;48.398;10.698;2022-10-17T11:13:40;96999.31;;;22.95
20867;BMP280;10593;48.398;10.698;2022-10-17T11:16:21;97005.19;;;23.00
20867;BMP280;10593;48.398;10.698;2022-10-17T11:19:03;96998.84;;;23.04
20867;BMP280;10593;48.398;10.698;2022-10-17T11:21:48;96992.50;;;23.08
20867;BMP280;10593;48.398;10.698;2022-10-17T11:24:24;96997.53;;;23.12
20867;BMP280;10593;48.398;10.698;2022-10-17T11:27:02;96995.59;;;23.16
20867;BMP280;10593;48.398;10.698;2022-10-17T11:29:33;96998.78;;;23.21
20867;BMP280;10593;48.398;10.698;2022-10-17T11:32:16;96999.41;;;23.26
20867;BMP280;10593;48.398;10.698;2022-10-17T11:34:50;97000.91;;;23.30
20867;BMP280;10593;48.398;10.698;2022-10-17T11:37:22;97001.59;;;23.33
20867;BMP280;10593;48.398;10.698;2022-10-17T11:40:06;97008.34;;;23.37
20867;BMP280;10593;48.398;10.698;2022-10-17T11:42:59;96999.47;;;23.40
20867;BMP280;10593;48.398;10.698;2022-10-17T11:45:32;97001.06;;;23.42
20867;BMP280;10593;48.398;10.698;2022-10-17T11:48:11;96999.97;;;23.46
20867;BMP280;10593;48.398;10.698;2022-10-17T11:50:47;97003.25;;;23.50
20867;BMP280;10593;48.398;10.698;2022-10-17T11:53:28;96996.91;;;23.54
20867;BMP280;10593;48.398;10.698;2022-10-17T11:55:59;96999.38;;;23.57
20867;BMP280;10593;48.398;10.698;2022-10-17T11:58:52;97002.66;;;23.60
20867;BMP280;10593;48.398;10.698;2022-10-17T12:01:43;97005.19;;;23.61
20867;BMP280;10593;48.398;10.698;2022-10-17T12:10:38;97002.97;;;23.69
20867;BMP280;10593;48.398;10.698;2022-10-17T12:15:56;96992.22;;;23.74
20867;BMP280;10593;48.398;10.698;2022-10-17T12:18:25;96990.25;;;23.77
20867;BMP280;10593;48.398;10.698;2022-10-17T12:20:58;96994.47;;;23.80
20867;BMP280;10593;48.398;10.698;2022-10-17T12:23:30;97003.06;;;23.83
20867;BMP280;10593;48.398;10.698;2022-10-17T12:26:01;96997.63;;;23.86
20867;BMP280;10593;48.398;10.698;2022-10-17T12:28:47;96996.50;;;23.90
20867;BMP280;10593;48.398;10.698;2022-10-17T12:52:24;96979.72;;;24.22
20867;BMP280;10593;48.398;10.698;2022-10-17T12:54:57;96974.28;;;24.25
20867;BMP280;10593;48.398;10.698;2022-10-17T13:00:35;96978.13;;;24.34
20867;BMP280;10593;48.398;10.698;2022-10-17T13:03:29;96979.63;;;24.38
20867;BMP280;10593;48.398;10.698;2022-10-17T13:06:02;96980.28;;;24.41
20867;BMP280;10593;48.398;10.698;2022-10-17T13:08:33;96987.97;;;24.44
20867;BMP280;10593;48.398;10.698;2022-10-17T13:11:01;96987.81;;;24.47
20867;BMP280;10593;48.398;10.698;2022-10-17T13:13:49;96982.38;;;24.50
20867;BMP280;10593;48.398;10.698;2022-10-17T13:16:36;96984.16;;;24.50
20867;BMP280;10593;48.398;10.698;2022-10-17T13:19:28;96985.00;;;24.50
20867;BMP280;10593;48.398;10.698;2022-10-17T13:21:57;96987.47;;;24.53
20867;BMP280;10593;48.398;10.698;2022-10-17T13:24:33;96984.84;;;24.53
20867;BMP280;10593;48.398;10.698;2022-10-17T13:27:01;96986.53;;;24.54
20867;BMP280;10593;48.398;10.698;2022-10-17T13:29:28;96989.91;;;24.56
20867;BMP280;10593;48.398;10.698;2022-10-17T13:31:59;96992.47;;;24.58
20867;BMP280;10593;48.398;10.698;2022-10-17T13:34:31;96988.88;;;24.59
20867;BMP280;10593;48.398;10.698;2022-10-17T13:37:02;96989.56;;;24.62
20867;BMP280;10593;48.398;10.698;2022-10-17T13:39:36;96981.56;;;24.64
20867;BMP280;10593;48.398;10.698;2022-10-17T13:42:04;96984.03;;;24.67
20867;BMP280;10593;48.398;10.698;2022-10-17T13:44:34;96977.69;;;24.69
20867;BMP280;10593;48.398;10.698;2022-10-17T13:47:01;96986.34;;;24.71
20867;BMP280;10593;48.398;10.698;2022-10-17T13:49:41;96983.63;;;24.73
20867;BMP280;10593;48.398;10.698;2022-10-17T13:52:18;96991.44;;;24.74
20867;BMP280;10593;48.398;10.698;2022-10-17T13:54:49;96988.81;;;24.74
20867;BMP280;10593;48.398;10.698;2022-10-17T13:57:23;96988.59;;;24.77
20867;BMP280;10593;48.398;10.698;2022-10-17T13:59:57;96987.56;;;24.80
20867;BMP280;10593;48.398;10.698;2022-10-17T14:02:29;96988.41;;;24.80
20867;BMP280;10593;48.398;10.698;2022-10-17T14:05:12;96985.59;;;24.83
20867;BMP280;10593;48.398;10.698;2022-10-17T14:08:12;96989.06;;;24.84
20867;BMP280;10593;48.398;10.698;2022-10-17T14:10:42;96988.13;;;24.85
20867;BMP280;10593;48.398;10.698;2022-10-17T14:13:25;96990.56;;;24.88
20867;BMP280;10593;48.398;10.698;2022-10-17T14:15:53;96993.13;;;24.89
20867;BMP280;10593;48.398;10.698;2022-10-17T14:18:29;96984.16;;;24.92
20867;BMP280;10593;48.398;10.698;2022-10-17T14:20:55;96994.53;;;24.95
20867;BMP280;10593;48.398;10.698;2022-10-17T14:23:37;96987.38;;;24.97
20867;BMP280;10593;48.398;10.698;2022-10-17T14:26:18;96989.88;;;24.98
20867;BMP280;10593;48.398;10.698;2022-10-17T14:32:12;96988.00;;;25.00
20867;BMP280;10593;48.398;10.698;2022-10-17T14:34:39;96989.59;;;25.03
20867;BMP280;10593;48.398;10.698;2022-10-17T14:37:43;96983.31;;;25.05
20867;BMP280;10593;48.398;10.698;2022-10-17T14:40:24;96991.94;;;25.07
20867;BMP280;10593;48.398;10.698;2022-10-17T14:42:53;96993.63;;;25.08
20867;BMP280;10593;48.398;10.698;2022-10-17T14:45:30;96997.88;;;25.11
20867;BMP280;10593;48.398;10.698;2022-10-17T14:48:13;96995.13;;;25.12
20867;BMP280;10593;48.398;10.698;2022-10-17T14:50:40;96994.97;;;25.15
20867;BMP280;10593;48.398;10.698;2022-10-17T14:55:39;97002.56;;;25.20
20867;BMP280;10593;48.398;10.698;2022-10-17T14:58:26;96999.03;;;25.21
20867;BMP280;10593;48.398;10.698;2022-10-17T15:00:53;97001.47;;;25.24
20867;BMP280;10593;48.398;10.698;2022-10-17T15:03:18;97002.41;;;25.23
20867;BMP280;10593;48.398;10.698;2022-10-17T15:05:46;97005.78;;;25.25
20867;BMP280;10593;48.398;10.698;2022-10-17T15:08:18;97010.09;;;25.26
20867;BMP280;10593;48.398;10.698;2022-10-17T15:10:45;97005.66;;;25.26
20867;BMP280;10593;48.398;10.698;2022-10-17T15:13:12;97003.03;;;25.26
20867;BMP280;10593;48.398;10.698;2022-10-17T15:15:39;97006.59;;;25.25
20867;BMP280;10593;48.398;10.698;2022-10-17T15:18:06;97011.03;;;25.25
20867;BMP280;10593;48.398;10.698;2022-10-17T15:20:34;97014.50;;;25.25
20867;BMP280;10593;48.398;10.698;2022-10-17T15:23:01;97011.88;;;25.25
20867;BMP280;10593;48.398;10.698;2022-10-17T15:25:30;97014.50;;;25.25
20867;BMP280;10593;48.398;10.698;2022-10-17T15:27:56;97014.50;;;25.25
20867;BMP280;10593;48.398;10.698;2022-10-17T15:30:31;97022.41;;;25.25
20867;BMP280;10593;48.398;10.698;2022-10-17T15:32:59;97026.81;;;25.25
20867;BMP280;10593;48.398;10.698;2022-10-17T15:35:26;97026.81;;;25.25
20867;BMP280;10593;48.398;10.698;2022-10-17T15:37:52;97029.47;;;25.25
20867;BMP280;10593;48.398;10.698;2022-10-17T15:40:27;97029.47;;;25.25
20867;BMP280;10593;48.398;10.698;2022-10-17T15:42:54;97027.84;;;25.22
20867;BMP280;10593;48.398;10.698;2022-10-17T15:45:21;97027.84;;;25.22
20867;BMP280;10593;48.398;10.698;2022-10-17T15:48:00;97029.75;;;25.20
20867;BMP280;10593;48.398;10.698;2022-10-17T15:50:26;97037.81;;;25.17
20867;BMP280;10593;48.398;10.698;2022-10-17T15:52:55;97031.78;;;25.15
20867;BMP280;10593;48.398;10.698;2022-10-17T15:55:21;97034.44;;;25.15